sensor_id;sensor_type;location;lat;lon;timestamp;temperature;humidity
4578;DHT22;2301;47.354;8.528;2023-05-29T00:00:22;19.20;49.40
4578;DHT22;2301;47.354;8.528;2023-05-29T00:02:51;19.10;49.50
4578;DHT22;2301;47.354;8.528;2023-05-29T00:05:21;19.10;50.10
4578;DHT22;2301;47.354;8.528;2023-05-29T00:07:51;19.00;50.00
4578;DHT22;2301;47.354;8.528;2023-05-29T00:10:21;19.00;50.10
4578;DHT22;2301;47.354;8.528;2023-05-29T00:12:48;19.00;50.30
4578;DHT22;2301;47.354;8.528;2023-05-29T00:15:16;19.00;50.20
4578;DHT22;2301;47.354;8.528;2023-05-29T00:17:43;18.90;50.10
4578;DHT22;2301;47.354;8.528;2023-05-29T00:20:13;18.90;49.90
4578;DHT22;2301;47.354;8.528;2023-05-29T00:22:40;18.90;49.70
4578;DHT22;2301;47.354;8.528;2023-05-29T00:25:08;18.90;49.60
4578;DHT22;2301;47.354;8.528;2023-05-29T00:27:35;18.90;49.80
4578;DHT22;2301;47.354;8.528;2023-05-29T00:30:04;18.90;50.00
4578;DHT22;2301;47.354;8.528;2023-05-29T00:32:38;18.80;50.00
4578;DHT22;2301;47.354;8.528;2023-05-29T00:35:07;18.80;50.00
4578;DHT22;2301;47.354;8.528;2023-05-29T00:37:35;18.80;49.80
4578;DHT22;2301;47.354;8.528;2023-05-29T00:40:07;18.80;49.80
4578;DHT22;2301;47.354;8.528;2023-05-29T00:42:34;18.80;49.40
4578;DHT22;2301;47.354;8.528;2023-05-29T00:45:02;18.80;48.90
4578;DHT22;2301;47.354;8.528;2023-05-29T00:47:29;18.80;48.60
4578;DHT22;2301;47.354;8.528;2023-05-29T00:49:58;18.80;48.40
4578;DHT22;2301;47.354;8.528;2023-05-29T00:52:27;18.80;48.40
4578;DHT22;2301;47.354;8.528;2023-05-29T00:54:59;18.80;48.40
4578;DHT22;2301;47.354;8.528;2023-05-29T00:57:32;18.80;48.30
4578;DHT22;2301;47.354;8.528;2023-05-29T01:00:00;18.80;48.20
4578;DHT22;2301;47.354;8.528;2023-05-29T01:02:44;18.80;48.00
4578;DHT22;2301;47.354;8.528;2023-05-29T01:05:17;18.80;47.90
4578;DHT22;2301;47.354;8.528;2023-05-29T01:07:46;18.70;47.90
4578;DHT22;2301;47.354;8.528;2023-05-29T01:10:28;18.70;48.10
4578;DHT22;2301;47.354;8.528;2023-05-29T01:13:03;18.70;48.20
4578;DHT22;2301;47.354;8.528;2023-05-29T01:15:41;18.70;48.30
4578;DHT22;2301;47.354;8.528;2023-05-29T01:18:31;18.60;48.40
4578;DHT22;2301;47.354;8.528;2023-05-29T01:21:05;18.60;48.60
4578;DHT22;2301;47.354;8.528;2023-05-29T01:23:46;18.50;48.70
4578;DHT22;2301;47.354;8.528;2023-05-29T01:26:31;18.50;48.70
4578;DHT22;2301;47.354;8.528;2023-05-29T01:29:14;18.50;48.70
4578;DHT22;2301;47.354;8.528;2023-05-29T01:31:42;18.50;48.80
4578;DHT22;2301;47.354;8.528;2023-05-29T01:34:10;18.40;48.80
4578;DHT22;2301;47.354;8.528;2023-05-29T01:36:44;18.40;48.90
4578;DHT22;2301;47.354;8.528;2023-05-29T01:39:14;18.40;48.70
4578;DHT22;2301;47.354;8.528;2023-05-29T01:41:48;18.40;48.60
4578;DHT22;2301;47.354;8.528;2023-05-29T01:44:23;18.40;48.40
4578;DHT22;2301;47.354;8.528;2023-05-29T01:46:53;18.40;48.30
4578;DHT22;2301;47.354;8.528;2023-05-29T01:49:28;18.30;48.20
4578;DHT22;2301;47.354;8.528;2023-05-29T01:51:56;18.30;48.30
4578;DHT22;2301;47.354;8.528;2023-05-29T01:54:22;18.30;48.30
4578;DHT22;2301;47.354;8.528;2023-05-29T01:56:51;18.30;48.30
4578;DHT22;2301;47.354;8.528;2023-05-29T01:59:19;18.30;48.20
4578;DHT22;2301;47.354;8.528;2023-05-29T02:01:47;18.20;48.30
4578;DHT22;2301;47.354;8.528;2023-05-29T02:04:14;18.20;48.30
4578;DHT22;2301;47.354;8.528;2023-05-29T02:06:47;18.20;48.30
4578;DHT22;2301;47.354;8.528;2023-05-29T02:11:43;18.10;48.20
4578;DHT22;2301;47.354;8.528;2023-05-29T02:14:23;18.10;48.20
4578;DHT22;2301;47.354;8.528;2023-05-29T02:16:50;18.10;48.10
4578;DHT22;2301;47.354;8.528;2023-05-29T02:19:23;18.10;48.20
4578;DHT22;2301;47.354;8.528;2023-05-29T02:21:50;18.10;48.10
4578;DHT22;2301;47.354;8.528;2023-05-29T02:24:19;18.10;48.30
4578;DHT22;2301;47.354;8.528;2023-05-29T02:26:49;18.00;48.30
4578;DHT22;2301;47.354;8.528;2023-05-29T02:29:21;18.00;48.20
4578;DHT22;2301;47.354;8.528;2023-05-29T02:31:51;18.10;48.10
4578;DHT22;2301;47.354;8.528;2023-05-29T02:34:18;18.00;48.00
4578;DHT22;2301;47.354;8.528;2023-05-29T02:36:48;18.00;47.80
4578;DHT22;2301;47.354;8.528;2023-05-29T02:39:15;18.00;47.70
4578;DHT22;2301;47.354;8.528;2023-05-29T02:41:49;18.00;47.70
4578;DHT22;2301;47.354;8.528;2023-05-29T02:44:20;18.00;47.90
4578;DHT22;2301;47.354;8.528;2023-05-29T02:46:47;17.90;48.20
4578;DHT22;2301;47.354;8.528;2023-05-29T02:49:15;17.90;48.30
4578;DHT22;2301;47.354;8.528;2023-05-29T02:51:47;17.90;48.40
4578;DHT22;2301;47.354;8.528;2023-05-29T02:54:16;17.90;48.60
4578;DHT22;2301;47.354;8.528;2023-05-29T02:56:43;17.80;48.60
4578;DHT22;2301;47.354;8.528;2023-05-29T02:59:16;17.80;48.60
4578;DHT22;2301;47.354;8.528;2023-05-29T03:01:46;17.80;49.10
4578;DHT22;2301;47.354;8.528;2023-05-29T03:04:14;17.70;49.50
4578;DHT22;2301;47.354;8.528;2023-05-29T03:06:45;17.70;49.60
4578;DHT22;2301;47.354;8.528;2023-05-29T03:09:17;17.60;49.80
4578;DHT22;2301;47.354;8.528;2023-05-29T03:11:47;17.60;49.80
4578;DHT22;2301;47.354;8.528;2023-05-29T03:14:17;17.60;49.80
4578;DHT22;2301;47.354;8.528;2023-05-29T03:16:46;17.60;49.90
4578;DHT22;2301;47.354;8.528;2023-05-29T03:19:13;17.60;49.70
4578;DHT22;2301;47.354;8.528;2023-05-29T03:21:41;17.60;49.60
4578;DHT22;2301;47.354;8.528;2023-05-29T03:24:21;17.50;49.60
4578;DHT22;2301;47.354;8.528;2023-05-29T03:26:49;17.50;49.90
4578;DHT22;2301;47.354;8.528;2023-05-29T03:29:23;17.50;50.10
4578;DHT22;2301;47.354;8.528;2023-05-29T03:31:52;17.50;50.20
4578;DHT22;2301;47.354;8.528;2023-05-29T03:34:19;17.40;50.10
4578;DHT22;2301;47.354;8.528;2023-05-29T03:36:57;17.40;50.00
4578;DHT22;2301;47.354;8.528;2023-05-29T03:39:25;17.40;50.10
4578;DHT22;2301;47.354;8.528;2023-05-29T03:41:54;17.30;50.00
4578;DHT22;2301;47.354;8.528;2023-05-29T03:47:13;17.30;50.00
4578;DHT22;2301;47.354;8.528;2023-05-29T03:49:47;17.30;50.10
4578;DHT22;2301;47.354;8.528;2023-05-29T03:52:14;17.30;50.10
4578;DHT22;2301;47.354;8.528;2023-05-29T03:54:41;17.30;50.00
4578;DHT22;2301;47.354;8.528;2023-05-29T03:57:10;17.20;50.00
4578;DHT22;2301;47.354;8.528;2023-05-29T03:59:42;17.20;50.10
4578;DHT22;2301;47.354;8.528;2023-05-29T04:02:11;17.30;50.20
4578;DHT22;2301;47.354;8.528;2023-05-29T04:04:41;17.20;50.10
4578;DHT22;2301;47.354;8.528;2023-05-29T04:07:08;17.20;50.20
4578;DHT22;2301;47.354;8.528;2023-05-29T04:09:37;17.20;50.40
4578;DHT22;2301;47.354;8.528;2023-05-29T04:12:06;17.20;51.10
4578;DHT22;2301;47.354;8.528;2023-05-29T04:14:45;17.10;51.90
4578;DHT22;2301;47.354;8.528;2023-05-29T04:17:14;17.10;52.00
4578;DHT22;2301;47.354;8.528;2023-05-29T04:19:42;17.00;51.90
4578;DHT22;2301;47.354;8.528;2023-05-29T04:22:09;17.00;51.60
4578;DHT22;2301;47.354;8.528;2023-05-29T04:24:36;17.00;51.10
4578;DHT22;2301;47.354;8.528;2023-05-29T04:27:03;17.00;51.10
4578;DHT22;2301;47.354;8.528;2023-05-29T04:29:30;17.00;51.20
4578;DHT22;2301;47.354;8.528;2023-05-29T04:32:02;17.00;51.10
4578;DHT22;2301;47.354;8.528;2023-05-29T04:34:34;17.00;51.00
4578;DHT22;2301;47.354;8.528;2023-05-29T04:37:03;17.00;51.20
4578;DHT22;2301;47.354;8.528;2023-05-29T04:39:31;16.90;51.10
4578;DHT22;2301;47.354;8.528;2023-05-29T04:41:58;17.00;51.40
4578;DHT22;2301;47.354;8.528;2023-05-29T04:44:26;17.00;51.70
4578;DHT22;2301;47.354;8.528;2023-05-29T04:46:58;17.00;52.10
4578;DHT22;2301;47.354;8.528;2023-05-29T04:49:28;17.00;52.00
4578;DHT22;2301;47.354;8.528;2023-05-29T04:51:57;17.00;51.90
4578;DHT22;2301;47.354;8.528;2023-05-29T04:54:27;17.00;52.10
4578;DHT22;2301;47.354;8.528;2023-05-29T04:56:54;17.00;52.30
4578;DHT22;2301;47.354;8.528;2023-05-29T04:59:21;17.00;52.40
4578;DHT22;2301;47.354;8.528;2023-05-29T05:01:48;17.00;52.30
4578;DHT22;2301;47.354;8.528;2023-05-29T05:04:31;17.10;51.90
4578;DHT22;2301;47.354;8.528;2023-05-29T05:07:07;17.10;51.90
4578;DHT22;2301;47.354;8.528;2023-05-29T05:09:36;17.10;51.70
4578;DHT22;2301;47.354;8.528;2023-05-29T05:12:03;17.10;51.90
4578;DHT22;2301;47.354;8.528;2023-05-29T05:14:31;17.20;51.80
4578;DHT22;2301;47.354;8.528;2023-05-29T05:16:58;17.20;51.80
4578;DHT22;2301;47.354;8.528;2023-05-29T05:19:27;17.20;52.00
4578;DHT22;2301;47.354;8.528;2023-05-29T05:21:54;17.20;51.80
4578;DHT22;2301;47.354;8.528;2023-05-29T05:24:23;17.30;51.60
4578;DHT22;2301;47.354;8.528;2023-05-29T05:26:57;17.30;51.60
4578;DHT22;2301;47.354;8.528;2023-05-29T05:29:33;17.30;51.50
4578;DHT22;2301;47.354;8.528;2023-05-29T05:32:01;17.30;51.30
4578;DHT22;2301;47.354;8.528;2023-05-29T05:34:27;17.30;51.30
4578;DHT22;2301;47.354;8.528;2023-05-29T05:36:56;17.40;51.40
4578;DHT22;2301;47.354;8.528;2023-05-29T05:39:23;17.40;51.40
4578;DHT22;2301;47.354;8.528;2023-05-29T05:41:52;17.40;51.50
4578;DHT22;2301;47.354;8.528;2023-05-29T05:44:24;17.50;51.70
4578;DHT22;2301;47.354;8.528;2023-05-29T05:47:09;17.50;51.60
4578;DHT22;2301;47.354;8.528;2023-05-29T05:49:36;17.60;51.60
4578;DHT22;2301;47.354;8.528;2023-05-29T05:52:15;17.60;51.70
4578;DHT22;2301;47.354;8.528;2023-05-29T05:54:48;17.60;51.80
4578;DHT22;2301;47.354;8.528;2023-05-29T05:57:30;17.70;51.90
4578;DHT22;2301;47.354;8.528;2023-05-29T06:00:00;17.70;51.50
4578;DHT22;2301;47.354;8.528;2023-05-29T06:02:36;17.80;51.30
4578;DHT22;2301;47.354;8.528;2023-05-29T06:05:04;17.80;51.10
4578;DHT22;2301;47.354;8.528;2023-05-29T06:07:38;17.90;51.10
4578;DHT22;2301;47.354;8.528;2023-05-29T06:10:18;17.90;51.20
4578;DHT22;2301;47.354;8.528;2023-05-29T06:12:47;18.00;51.20
4578;DHT22;2301;47.354;8.528;2023-05-29T06:15:19;18.00;51.10
4578;DHT22;2301;47.354;8.528;2023-05-29T06:17:46;18.00;51.10
4578;DHT22;2301;47.354;8.528;2023-05-29T06:20:18;18.10;51.50
4578;DHT22;2301;47.354;8.528;2023-05-29T06:23:07;18.10;51.90
4578;DHT22;2301;47.354;8.528;2023-05-29T06:25:37;18.20;51.30
4578;DHT22;2301;47.354;8.528;2023-05-29T06:28:11;18.20;51.30
4578;DHT22;2301;47.354;8.528;2023-05-29T06:30:51;18.30;51.20
4578;DHT22;2301;47.354;8.528;2023-05-29T06:33:18;18.50;51.10
4578;DHT22;2301;47.354;8.528;2023-05-29T06:35:49;18.60;51.00
4578;DHT22;2301;47.354;8.528;2023-05-29T06:38:16;18.70;51.10
4578;DHT22;2301;47.354;8.528;2023-05-29T06:40:43;18.90;51.10
4578;DHT22;2301;47.354;8.528;2023-05-29T06:43:15;19.00;50.70
4578;DHT22;2301;47.354;8.528;2023-05-29T06:45:42;19.10;50.50
4578;DHT22;2301;47.354;8.528;2023-05-29T06:48:13;19.30;50.60
4578;DHT22;2301;47.354;8.528;2023-05-29T06:50:43;19.40;50.40
4578;DHT22;2301;47.354;8.528;2023-05-29T06:53:21;19.50;50.00
4578;DHT22;2301;47.354;8.528;2023-05-29T06:55:52;19.70;50.00
4578;DHT22;2301;47.354;8.528;2023-05-29T06:58:18;19.80;49.90
4578;DHT22;2301;47.354;8.528;2023-05-29T07:00:54;20.10;49.80
4578;DHT22;2301;47.354;8.528;2023-05-29T07:03:26;20.20;49.30
4578;DHT22;2301;47.354;8.528;2023-05-29T07:06:00;20.40;49.10
4578;DHT22;2301;47.354;8.528;2023-05-29T07:08:31;20.60;49.10
4578;DHT22;2301;47.354;8.528;2023-05-29T07:10:58;20.70;48.80
4578;DHT22;2301;47.354;8.528;2023-05-29T07:13:34;20.80;48.20
4578;DHT22;2301;47.354;8.528;2023-05-29T07:16:22;20.90;48.10
4578;DHT22;2301;47.354;8.528;2023-05-29T07:19:04;21.20;47.80
4578;DHT22;2301;47.354;8.528;2023-05-29T07:21:45;21.30;47.60
4578;DHT22;2301;47.354;8.528;2023-05-29T07:24:18;21.40;47.50
4578;DHT22;2301;47.354;8.528;2023-05-29T07:26:48;21.60;47.90
4578;DHT22;2301;47.354;8.528;2023-05-29T07:29:15;21.70;47.10
4578;DHT22;2301;47.354;8.528;2023-05-29T07:31:44;21.80;47.20
4578;DHT22;2301;47.354;8.528;2023-05-29T07:34:13;21.90;46.70
4578;DHT22;2301;47.354;8.528;2023-05-29T07:37:01;22.10;46.60
4578;DHT22;2301;47.354;8.528;2023-05-29T07:39:39;22.20;46.50
4578;DHT22;2301;47.354;8.528;2023-05-29T07:42:09;22.40;46.30
4578;DHT22;2301;47.354;8.528;2023-05-29T07:44:46;22.50;45.70
4578;DHT22;2301;47.354;8.528;2023-05-29T07:47:18;22.60;45.60
4578;DHT22;2301;47.354;8.528;2023-05-29T07:49:46;22.80;45.60
4578;DHT22;2301;47.354;8.528;2023-05-29T07:52:15;22.90;45.30
4578;DHT22;2301;47.354;8.528;2023-05-29T07:54:56;23.10;45.10
4578;DHT22;2301;47.354;8.528;2023-05-29T07:57:23;23.20;44.90
4578;DHT22;2301;47.354;8.528;2023-05-29T08:00:10;23.40;45.10
4578;DHT22;2301;47.354;8.528;2023-05-29T08:02:39;23.50;44.50
4578;DHT22;2301;47.354;8.528;2023-05-29T08:05:30;23.60;44.20
4578;DHT22;2301;47.354;8.528;2023-05-29T08:07:59;23.80;44.30
4578;DHT22;2301;47.354;8.528;2023-05-29T08:10:45;23.90;44.40
4578;DHT22;2301;47.354;8.528;2023-05-29T08:13:21;24.10;44.00
4578;DHT22;2301;47.354;8.528;2023-05-29T08:15:48;24.30;43.90
4578;DHT22;2301;47.354;8.528;2023-05-29T08:18:18;24.40;43.50
4578;DHT22;2301;47.354;8.528;2023-05-29T08:20:46;24.50;43.40
4578;DHT22;2301;47.354;8.528;2023-05-29T08:23:22;24.60;43.20
4578;DHT22;2301;47.354;8.528;2023-05-29T08:26:02;24.70;42.30
4578;DHT22;2301;47.354;8.528;2023-05-29T08:28:32;24.90;42.60
4578;DHT22;2301;47.354;8.528;2023-05-29T08:30:59;25.00;42.30
4578;DHT22;2301;47.354;8.528;2023-05-29T08:33:41;25.20;42.30
4578;DHT22;2301;47.354;8.528;2023-05-29T08:36:09;25.40;41.90
4578;DHT22;2301;47.354;8.528;2023-05-29T08:38:36;25.60;41.90
4578;DHT22;2301;47.354;8.528;2023-05-29T08:41:19;25.70;41.70
4578;DHT22;2301;47.354;8.528;2023-05-29T08:43:49;25.80;41.70
4578;DHT22;2301;47.354;8.528;2023-05-29T08:46:23;26.00;42.20
4578;DHT22;2301;47.354;8.528;2023-05-29T08:48:52;26.10;41.90
4578;DHT22;2301;47.354;8.528;2023-05-29T08:51:23;26.20;41.30
4578;DHT22;2301;47.354;8.528;2023-05-29T08:53:56;26.30;40.80
4578;DHT22;2301;47.354;8.528;2023-05-29T08:56:32;26.50;41.10
4578;DHT22;2301;47.354;8.528;2023-05-29T08:59:05;26.70;40.80
4578;DHT22;2301;47.354;8.528;2023-05-29T09:01:34;26.80;40.50
4578;DHT22;2301;47.354;8.528;2023-05-29T09:04:08;27.00;40.60
4578;DHT22;2301;47.354;8.528;2023-05-29T09:07:10;27.20;40.30
4578;DHT22;2301;47.354;8.528;2023-05-29T09:09:40;27.40;40.20
4578;DHT22;2301;47.354;8.528;2023-05-29T09:12:08;27.50;39.30
4578;DHT22;2301;47.354;8.528;2023-05-29T09:14:46;27.50;39.10
4578;DHT22;2301;47.354;8.528;2023-05-29T09:17:16;27.50;39.00
4578;DHT22;2301;47.354;8.528;2023-05-29T09:19:44;27.50;39.30
4578;DHT22;2301;47.354;8.528;2023-05-29T09:22:27;27.60;39.90
4578;DHT22;2301;47.354;8.528;2023-05-29T09:24:59;27.80;38.80
4578;DHT22;2301;47.354;8.528;2023-05-29T09:27:27;27.90;38.80
4578;DHT22;2301;47.354;8.528;2023-05-29T09:29:57;28.00;38.50
4578;DHT22;2301;47.354;8.528;2023-05-29T09:32:32;28.10;38.20
4578;DHT22;2301;47.354;8.528;2023-05-29T09:35:20;28.20;38.80
4578;DHT22;2301;47.354;8.528;2023-05-29T09:38:01;28.40;38.40
4578;DHT22;2301;47.354;8.528;2023-05-29T09:40:30;28.50;38.00
4578;DHT22;2301;47.354;8.528;2023-05-29T09:43:09;28.60;37.90
4578;DHT22;2301;47.354;8.528;2023-05-29T09:45:44;28.80;37.20
4578;DHT22;2301;47.354;8.528;2023-05-29T09:48:29;28.80;37.50
4578;DHT22;2301;47.354;8.528;2023-05-29T09:51:06;28.80;37.30
4578;DHT22;2301;47.354;8.528;2023-05-29T09:53:47;28.80;37.30
4578;DHT22;2301;47.354;8.528;2023-05-29T09:56:38;28.80;37.10
4578;DHT22;2301;47.354;8.528;2023-05-29T09:59:13;28.80;36.80
4578;DHT22;2301;47.354;8.528;2023-05-29T10:01:41;28.90;36.90
4578;DHT22;2301;47.354;8.528;2023-05-29T10:04:26;28.90;37.20
4578;DHT22;2301;47.354;8.528;2023-05-29T10:07:08;29.00;37.00
4578;DHT22;2301;47.354;8.528;2023-05-29T10:09:42;29.10;37.20
4578;DHT22;2301;47.354;8.528;2023-05-29T10:12:18;29.20;37.00
4578;DHT22;2301;47.354;8.528;2023-05-29T10:15:06;29.40;37.20
4578;DHT22;2301;47.354;8.528;2023-05-29T10:17:52;29.60;36.90
4578;DHT22;2301;47.354;8.528;2023-05-29T10:20:29;29.90;37.10
4578;DHT22;2301;47.354;8.528;2023-05-29T10:23:00;30.20;36.80
4578;DHT22;2301;47.354;8.528;2023-05-29T10:25:41;30.30;36.60
4578;DHT22;2301;47.354;8.528;2023-05-29T10:28:35;30.30;36.50
4578;DHT22;2301;47.354;8.528;2023-05-29T10:31:07;30.40;35.80
4578;DHT22;2301;47.354;8.528;2023-05-29T10:33:58;30.20;35.30
4578;DHT22;2301;47.354;8.528;2023-05-29T10:36:38;30.20;36.40
4578;DHT22;2301;47.354;8.528;2023-05-29T10:39:23;30.10;35.70
4578;DHT22;2301;47.354;8.528;2023-05-29T10:41:51;30.10;35.80
4578;DHT22;2301;47.354;8.528;2023-05-29T10:47:27;30.00;35.20
4578;DHT22;2301;47.354;8.528;2023-05-29T10:50:12;30.20;36.00
4578;DHT22;2301;47.354;8.528;2023-05-29T10:52:58;30.50;35.50
4578;DHT22;2301;47.354;8.528;2023-05-29T10:55:36;30.50;35.10
4578;DHT22;2301;47.354;8.528;2023-05-29T10:58:24;30.70;35.30
4578;DHT22;2301;47.354;8.528;2023-05-29T11:00:54;30.70;34.60
4578;DHT22;2301;47.354;8.528;2023-05-29T11:03:24;30.60;34.50
4578;DHT22;2301;47.354;8.528;2023-05-29T11:05:59;30.60;34.90
4578;DHT22;2301;47.354;8.528;2023-05-29T11:08:56;30.60;35.20
4578;DHT22;2301;47.354;8.528;2023-05-29T11:11:41;30.60;35.40
4578;DHT22;2301;47.354;8.528;2023-05-29T11:14:27;30.50;34.70
4578;DHT22;2301;47.354;8.528;2023-05-29T11:17:06;30.50;34.90
4578;DHT22;2301;47.354;8.528;2023-05-29T11:20:17;30.40;35.10
4578;DHT22;2301;47.354;8.528;2023-05-29T11:23:00;30.40;35.40
4578;DHT22;2301;47.354;8.528;2023-05-29T11:25:36;30.40;35.30
4578;DHT22;2301;47.354;8.528;2023-05-29T11:28:30;30.40;35.10
4578;DHT22;2301;47.354;8.528;2023-05-29T11:31:18;30.30;34.40
4578;DHT22;2301;47.354;8.528;2023-05-29T11:33:48;30.30;34.60
4578;DHT22;2301;47.354;8.528;2023-05-29T11:36:30;30.30;34.80
4578;DHT22;2301;47.354;8.528;2023-05-29T11:39:05;30.20;34.80
4578;DHT22;2301;47.354;8.528;2023-05-29T11:41:40;30.20;34.90
4578;DHT22;2301;47.354;8.528;2023-05-29T11:44:13;30.20;34.40
4578;DHT22;2301;47.354;8.528;2023-05-29T11:46:59;30.20;34.70
4578;DHT22;2301;47.354;8.528;2023-05-29T11:49:37;30.30;34.90
4578;DHT22;2301;47.354;8.528;2023-05-29T11:52:08;30.40;34.60
4578;DHT22;2301;47.354;8.528;2023-05-29T11:55:04;30.40;34.10
4578;DHT22;2301;47.354;8.528;2023-05-29T11:57:32;30.30;33.50
4578;DHT22;2301;47.354;8.528;2023-05-29T12:00:04;30.30;34.00
4578;DHT22;2301;47.354;8.528;2023-05-29T12:03:07;30.20;34.30
4578;DHT22;2301;47.354;8.528;2023-05-29T12:05:44;30.10;34.50
4578;DHT22;2301;47.354;8.528;2023-05-29T12:08:14;30.10;34.70
4578;DHT22;2301;47.354;8.528;2023-05-29T12:10:49;30.10;35.00
4578;DHT22;2301;47.354;8.528;2023-05-29T12:13:23;30.10;34.40
4578;DHT22;2301;47.354;8.528;2023-05-29T12:15:57;30.00;33.80
4578;DHT22;2301;47.354;8.528;2023-05-29T12:21:29;29.90;34.10
4578;DHT22;2301;47.354;8.528;2023-05-29T12:24:25;29.80;34.20
4578;DHT22;2301;47.354;8.528;2023-05-29T12:26:56;29.70;33.50
4578;DHT22;2301;47.354;8.528;2023-05-29T12:29:49;29.70;33.70
4578;DHT22;2301;47.354;8.528;2023-05-29T12:32:41;29.70;33.80
4578;DHT22;2301;47.354;8.528;2023-05-29T12:35:21;29.70;33.60
4578;DHT22;2301;47.354;8.528;2023-05-29T12:37:55;29.60;33.60
4578;DHT22;2301;47.354;8.528;2023-05-29T12:40:36;29.70;33.60
4578;DHT22;2301;47.354;8.528;2023-05-29T12:43:09;29.70;34.00
4578;DHT22;2301;47.354;8.528;2023-05-29T12:45:36;29.70;33.60
4578;DHT22;2301;47.354;8.528;2023-05-29T12:48:07;29.70;33.70
4578;DHT22;2301;47.354;8.528;2023-05-29T12:50:41;29.70;33.70
4578;DHT22;2301;47.354;8.528;2023-05-29T12:53:11;29.70;33.10
4578;DHT22;2301;47.354;8.528;2023-05-29T12:55:51;29.70;33.10
4578;DHT22;2301;47.354;8.528;2023-05-29T12:58:56;29.70;33.10
4578;DHT22;2301;47.354;8.528;2023-05-29T13:01:53;29.80;33.50
4578;DHT22;2301;47.354;8.528;2023-05-29T13:04:38;29.70;33.90
4578;DHT22;2301;47.354;8.528;2023-05-29T13:07:11;29.70;33.80
4578;DHT22;2301;47.354;8.528;2023-05-29T13:10:10;29.60;33.60
4578;DHT22;2301;47.354;8.528;2023-05-29T13:13:07;29.60;33.50
4578;DHT22;2301;47.354;8.528;2023-05-29T13:15:38;29.60;32.80
4578;DHT22;2301;47.354;8.528;2023-05-29T13:18:06;29.60;33.40
4578;DHT22;2301;47.354;8.528;2023-05-29T13:20:38;29.60;32.90
4578;DHT22;2301;47.354;8.528;2023-05-29T13:23:41;29.60;32.60
4578;DHT22;2301;47.354;8.528;2023-05-29T13:26:38;29.50;32.50
4578;DHT22;2301;47.354;8.528;2023-05-29T13:29:05;29.50;31.70
4578;DHT22;2301;47.354;8.528;2023-05-29T13:31:44;29.40;31.70
4578;DHT22;2301;47.354;8.528;2023-05-29T13:34:20;29.30;32.00
4578;DHT22;2301;47.354;8.528;2023-05-29T13:36:53;29.30;32.30
4578;DHT22;2301;47.354;8.528;2023-05-29T13:39:28;29.30;32.90
4578;DHT22;2301;47.354;8.528;2023-05-29T13:42:04;29.10;32.60
4578;DHT22;2301;47.354;8.528;2023-05-29T13:44:48;29.20;33.60
4578;DHT22;2301;47.354;8.528;2023-05-29T13:47:26;29.20;33.00
4578;DHT22;2301;47.354;8.528;2023-05-29T13:50:10;29.10;32.50
4578;DHT22;2301;47.354;8.528;2023-05-29T13:52:44;29.20;33.10
4578;DHT22;2301;47.354;8.528;2023-05-29T13:55:13;29.20;33.00
4578;DHT22;2301;47.354;8.528;2023-05-29T13:57:55;29.10;32.60
4578;DHT22;2301;47.354;8.528;2023-05-29T14:00:23;29.10;33.20
4578;DHT22;2301;47.354;8.528;2023-05-29T14:03:15;29.10;33.10
4578;DHT22;2301;47.354;8.528;2023-05-29T14:09:00;29.00;33.40
4578;DHT22;2301;47.354;8.528;2023-05-29T14:11:55;29.10;33.10
4578;DHT22;2301;47.354;8.528;2023-05-29T14:14:28;29.00;33.00
4578;DHT22;2301;47.354;8.528;2023-05-29T14:17:09;29.00;33.10
4578;DHT22;2301;47.354;8.528;2023-05-29T14:19:59;29.00;33.50
4578;DHT22;2301;47.354;8.528;2023-05-29T14:23:04;29.00;32.70
4578;DHT22;2301;47.354;8.528;2023-05-29T14:25:43;29.00;32.70
4578;DHT22;2301;47.354;8.528;2023-05-29T14:28:12;28.90;32.80
4578;DHT22;2301;47.354;8.528;2023-05-29T14:30:56;28.90;32.80
4578;DHT22;2301;47.354;8.528;2023-05-29T14:33:47;28.90;32.60
4578;DHT22;2301;47.354;8.528;2023-05-29T14:36:28;28.90;33.20
4578;DHT22;2301;47.354;8.528;2023-05-29T14:39:13;28.90;32.30
4578;DHT22;2301;47.354;8.528;2023-05-29T14:44:19;28.70;32.70
4578;DHT22;2301;47.354;8.528;2023-05-29T14:46:49;28.80;32.80
4578;DHT22;2301;47.354;8.528;2023-05-29T14:49:16;28.80;32.20
4578;DHT22;2301;47.354;8.528;2023-05-29T14:51:53;28.70;31.90
4578;DHT22;2301;47.354;8.528;2023-05-29T14:54:27;28.70;33.20
4578;DHT22;2301;47.354;8.528;2023-05-29T14:57:15;28.70;32.80
4578;DHT22;2301;47.354;8.528;2023-05-29T14:59:42;28.70;34.00
4578;DHT22;2301;47.354;8.528;2023-05-29T15:05:27;28.80;33.50
4578;DHT22;2301;47.354;8.528;2023-05-29T15:07:54;28.80;32.40
4578;DHT22;2301;47.354;8.528;2023-05-29T15:10:51;28.70;32.30
4578;DHT22;2301;47.354;8.528;2023-05-29T15:13:49;28.60;31.60
4578;DHT22;2301;47.354;8.528;2023-05-29T15:16:16;28.50;31.60
4578;DHT22;2301;47.354;8.528;2023-05-29T15:19:10;28.50;31.90
4578;DHT22;2301;47.354;8.528;2023-05-29T15:21:47;28.50;32.00
4578;DHT22;2301;47.354;8.528;2023-05-29T15:24:42;28.40;31.90
4578;DHT22;2301;47.354;8.528;2023-05-29T15:27:20;28.40;32.20
4578;DHT22;2301;47.354;8.528;2023-05-29T15:30:02;28.40;32.30
4578;DHT22;2301;47.354;8.528;2023-05-29T15:32:34;28.40;32.20
4578;DHT22;2301;47.354;8.528;2023-05-29T15:35:07;28.40;32.30
4578;DHT22;2301;47.354;8.528;2023-05-29T15:38:05;28.30;31.50
4578;DHT22;2301;47.354;8.528;2023-05-29T15:40:46;28.30;31.80
4578;DHT22;2301;47.354;8.528;2023-05-29T15:43:13;28.20;31.60
4578;DHT22;2301;47.354;8.528;2023-05-29T15:45:40;28.20;31.80
4578;DHT22;2301;47.354;8.528;2023-05-29T15:48:27;28.20;32.50
4578;DHT22;2301;47.354;8.528;2023-05-29T15:51:00;28.10;32.70
4578;DHT22;2301;47.354;8.528;2023-05-29T15:53:34;28.10;32.80
4578;DHT22;2301;47.354;8.528;2023-05-29T15:56:07;28.10;33.10
4578;DHT22;2301;47.354;8.528;2023-05-29T15:58:34;28.20;32.70
4578;DHT22;2301;47.354;8.528;2023-05-29T16:04:20;28.10;32.50
4578;DHT22;2301;47.354;8.528;2023-05-29T16:07:17;28.00;32.40
4578;DHT22;2301;47.354;8.528;2023-05-29T16:09:43;27.80;32.20
4578;DHT22;2301;47.354;8.528;2023-05-29T16:15:06;27.70;32.20
4578;DHT22;2301;47.354;8.528;2023-05-29T16:17:47;27.70;32.80
4578;DHT22;2301;47.354;8.528;2023-05-29T16:20:14;27.70;33.20
4578;DHT22;2301;47.354;8.528;2023-05-29T16:22:41;27.70;33.60
4578;DHT22;2301;47.354;8.528;2023-05-29T16:25:19;27.70;33.10
4578;DHT22;2301;47.354;8.528;2023-05-29T16:27:45;27.60;32.10
4578;DHT22;2301;47.354;8.528;2023-05-29T16:36:02;27.50;32.20
4578;DHT22;2301;47.354;8.528;2023-05-29T16:38:34;27.50;32.00
4578;DHT22;2301;47.354;8.528;2023-05-29T16:42:12;27.50;32.70
4578;DHT22;2301;47.354;8.528;2023-05-29T16:44:25;27.40;32.50
4578;DHT22;2301;47.354;8.528;2023-05-29T16:47:15;27.40;32.70
4578;DHT22;2301;47.354;8.528;2023-05-29T16:49:49;27.30;33.10
4578;DHT22;2301;47.354;8.528;2023-05-29T16:52:34;27.30;32.80
4578;DHT22;2301;47.354;8.528;2023-05-29T16:55:15;27.20;33.30
4578;DHT22;2301;47.354;8.528;2023-05-29T16:57:57;27.20;32.80
4578;DHT22;2301;47.354;8.528;2023-05-29T17:00:38;27.10;33.30
4578;DHT22;2301;47.354;8.528;2023-05-29T17:06:01;27.10;33.30
4578;DHT22;2301;47.354;8.528;2023-05-29T17:09:50;27.00;33.60
4578;DHT22;2301;47.354;8.528;2023-05-29T17:11:47;27.00;33.20
4578;DHT22;2301;47.354;8.528;2023-05-29T17:14:38;26.90;33.50
4578;DHT22;2301;47.354;8.528;2023-05-29T17:17:06;27.00;33.90
4578;DHT22;2301;47.354;8.528;2023-05-29T17:22:49;26.80;34.20
4578;DHT22;2301;47.354;8.528;2023-05-29T17:25:40;26.80;34.90
4578;DHT22;2301;47.354;8.528;2023-05-29T17:28:07;26.70;35.00
4578;DHT22;2301;47.354;8.528;2023-05-29T17:30:49;26.70;34.80